Terminal Aerodrome Forecast
Issued by NWS Charleston, WV

Current Version | Previous Version | Graphics & Text | Print | Product List | Glossary On
Versions: 1 2 3 4 5 6 7 8 9 10 11 12 13 14 15 16 17 18 19 20 21 22
000
FTUS41 KRLX 231120
TAFEKN
TAF
KEKN 231120Z 2312/2412 00000KT 1/4SM FG OVC001
      TEMPO 2312/2313 4SM BR BKN002
     FM231300 00000KT P6SM FEW200
     FM231700 31004KT P6SM FEW040
     FM240100 00000KT P6SM FEW250
     FM240600 00000KT P6SM FEW050
     FM240800 00000KT 5SM BR FEW001 SCT050
     FM240900 00000KT 3/4SM BR BKN001
     FM241000 00000KT 1/4SM FG OVC001=

USA.gov is the U.S. government's official web portal to all federal, state and local government web resources and services.